sensor_id;sensor_type;location;lat;lon;timestamp;P1;durP1;ratioP1;P2;durP2;ratioP2
67816;SDS011;54614;47.576;7.524;2023-05-10T00:01:08;0.85;;;0.77;;
67816;SDS011;54614;47.576;7.524;2023-05-10T00:03:33;1.75;;;0.77;;
67816;SDS011;54614;47.576;7.524;2023-05-10T00:05:59;0.98;;;0.73;;
67816;SDS011;54614;47.576;7.524;2023-05-10T00:08:25;1.27;;;0.63;;
67816;SDS011;54614;47.576;7.524;2023-05-10T00:10:51;0.90;;;0.70;;
67816;SDS011;54614;47.576;7.524;2023-05-10T00:13:18;0.82;;;0.65;;
67816;SDS011;54614;47.576;7.524;2023-05-10T00:15:43;0.73;;;0.73;;
67816;SDS011;54614;47.576;7.524;2023-05-10T00:18:09;0.68;;;0.65;;
67816;SDS011;54614;47.576;7.524;2023-05-10T00:20:35;1.50;;;0.88;;
67816;SDS011;54614;47.576;7.524;2023-05-10T00:23:01;1.27;;;0.73;;
67816;SDS011;54614;47.576;7.524;2023-05-10T00:25:27;2.25;;;0.90;;
67816;SDS011;54614;47.576;7.524;2023-05-10T00:27:52;0.60;;;0.60;;
67816;SDS011;54614;47.576;7.524;2023-05-10T00:30:20;1.50;;;0.77;;
67816;SDS011;54614;47.576;7.524;2023-05-10T00:32:46;2.70;;;0.80;;
67816;SDS011;54614;47.576;7.524;2023-05-10T00:35:13;1.50;;;0.75;;
67816;SDS011;54614;47.576;7.524;2023-05-10T00:37:39;2.65;;;0.70;;
67816;SDS011;54614;47.576;7.524;2023-05-10T00:40:05;0.75;;;0.70;;
67816;SDS011;54614;47.576;7.524;2023-05-10T00:42:32;0.50;;;0.50;;
67816;SDS011;54614;47.576;7.524;2023-05-10T00:45:00;1.05;;;0.60;;
67816;SDS011;54614;47.576;7.524;2023-05-10T00:47:26;0.82;;;0.70;;
67816;SDS011;54614;47.576;7.524;2023-05-10T00:49:53;1.08;;;0.80;;
67816;SDS011;54614;47.576;7.524;2023-05-10T00:52:20;0.82;;;0.63;;
67816;SDS011;54614;47.576;7.524;2023-05-10T00:54:49;1.60;;;0.68;;
67816;SDS011;54614;47.576;7.524;2023-05-10T00:57:17;2.38;;;0.68;;
67816;SDS011;54614;47.576;7.524;2023-05-10T00:59:43;1.73;;;0.70;;
67816;SDS011;54614;47.576;7.524;2023-05-10T01:02:09;1.40;;;0.60;;
67816;SDS011;54614;47.576;7.524;2023-05-10T01:04:35;1.35;;;0.75;;
67816;SDS011;54614;47.576;7.524;2023-05-10T01:07:02;0.65;;;0.60;;
67816;SDS011;54614;47.576;7.524;2023-05-10T01:09:28;0.60;;;0.60;;
67816;SDS011;54614;47.576;7.524;2023-05-10T01:11:54;1.50;;;0.70;;
67816;SDS011;54614;47.576;7.524;2023-05-10T01:14:21;0.60;;;0.60;;
67816;SDS011;54614;47.576;7.524;2023-05-10T01:16:48;1.10;;;0.60;;
67816;SDS011;54614;47.576;7.524;2023-05-10T01:19:28;4.00;;;0.50;;
67816;SDS011;54614;47.576;7.524;2023-05-10T01:24:46;0.45;;;0.45;;
67816;SDS011;54614;47.576;7.524;2023-05-10T01:30:46;0.40;;;0.40;;
67816;SDS011;54614;47.576;7.524;2023-05-10T01:33:56;0.60;;;0.60;;
67816;SDS011;54614;47.576;7.524;2023-05-10T01:36:30;0.65;;;0.63;;
67816;SDS011;54614;47.576;7.524;2023-05-10T01:42:03;1.25;;;0.60;;
67816;SDS011;54614;47.576;7.524;2023-05-10T01:44:49;0.60;;;0.60;;
67816;SDS011;54614;47.576;7.524;2023-05-10T01:47:46;0.57;;;0.57;;
67816;SDS011;54614;47.576;7.524;2023-05-10T01:50:24;0.60;;;0.60;;
67816;SDS011;54614;47.576;7.524;2023-05-10T01:52:55;1.48;;;0.63;;
67816;SDS011;54614;47.576;7.524;2023-05-10T01:55:26;0.60;;;0.60;;
67816;SDS011;54614;47.576;7.524;2023-05-10T01:58:07;0.60;;;0.60;;
67816;SDS011;54614;47.576;7.524;2023-05-10T02:00:40;1.20;;;0.60;;
67816;SDS011;54614;47.576;7.524;2023-05-10T02:03:12;0.50;;;0.50;;
67816;SDS011;54614;47.576;7.524;2023-05-10T02:05:41;2.83;;;0.70;;
67816;SDS011;54614;47.576;7.524;2023-05-10T02:08:11;2.25;;;0.57;;
67816;SDS011;54614;47.576;7.524;2023-05-10T02:10:39;0.80;;;0.60;;
67816;SDS011;54614;47.576;7.524;2023-05-10T02:13:07;0.50;;;0.50;;
67816;SDS011;54614;47.576;7.524;2023-05-10T02:15:36;1.55;;;0.60;;
67816;SDS011;54614;47.576;7.524;2023-05-10T02:18:04;0.65;;;0.60;;
67816;SDS011;54614;47.576;7.524;2023-05-10T02:20:31;0.50;;;0.50;;
67816;SDS011;54614;47.576;7.524;2023-05-10T02:22:59;1.17;;;0.40;;
67816;SDS011;54614;47.576;7.524;2023-05-10T02:25:27;1.45;;;0.50;;
67816;SDS011;54614;47.576;7.524;2023-05-10T02:27:56;0.75;;;0.57;;
67816;SDS011;54614;47.576;7.524;2023-05-10T02:30:26;0.57;;;0.57;;
67816;SDS011;54614;47.576;7.524;2023-05-10T02:32:56;0.65;;;0.50;;
67816;SDS011;54614;47.576;7.524;2023-05-10T02:35:23;0.70;;;0.70;;
67816;SDS011;54614;47.576;7.524;2023-05-10T02:37:52;0.90;;;0.60;;
67816;SDS011;54614;47.576;7.524;2023-05-10T02:40:19;0.60;;;0.60;;
67816;SDS011;54614;47.576;7.524;2023-05-10T02:42:48;1.20;;;0.70;;
67816;SDS011;54614;47.576;7.524;2023-05-10T02:45:19;1.65;;;0.63;;
67816;SDS011;54614;47.576;7.524;2023-05-10T02:47:51;0.60;;;0.60;;
67816;SDS011;54614;47.576;7.524;2023-05-10T02:50:17;0.50;;;0.50;;
67816;SDS011;54614;47.576;7.524;2023-05-10T02:52:49;0.63;;;0.50;;
67816;SDS011;54614;47.576;7.524;2023-05-10T02:55:17;0.60;;;0.60;;
67816;SDS011;54614;47.576;7.524;2023-05-10T02:57:57;1.85;;;0.60;;
67816;SDS011;54614;47.576;7.524;2023-05-10T03:00:26;0.60;;;0.60;;
67816;SDS011;54614;47.576;7.524;2023-05-10T03:02:52;0.57;;;0.50;;
67816;SDS011;54614;47.576;7.524;2023-05-10T03:05:19;1.38;;;0.50;;
67816;SDS011;54614;47.576;7.524;2023-05-10T03:07:45;0.65;;;0.65;;
67816;SDS011;54614;47.576;7.524;2023-05-10T03:10:12;3.22;;;0.50;;
67816;SDS011;54614;47.576;7.524;2023-05-10T03:15:51;0.63;;;0.63;;
67816;SDS011;54614;47.576;7.524;2023-05-10T03:18:37;0.40;;;0.40;;
67816;SDS011;54614;47.576;7.524;2023-05-10T03:21:19;1.45;;;0.50;;
67816;SDS011;54614;47.576;7.524;2023-05-10T03:23:57;0.60;;;0.60;;
67816;SDS011;54614;47.576;7.524;2023-05-10T03:26:37;0.60;;;0.60;;
67816;SDS011;54614;47.576;7.524;2023-05-10T03:29:05;0.57;;;0.50;;
67816;SDS011;54614;47.576;7.524;2023-05-10T03:31:33;0.65;;;0.50;;
67816;SDS011;54614;47.576;7.524;2023-05-10T03:33:59;1.05;;;0.70;;
67816;SDS011;54614;47.576;7.524;2023-05-10T03:36:25;0.63;;;0.60;;
67816;SDS011;54614;47.576;7.524;2023-05-10T03:38:51;0.80;;;0.50;;
67816;SDS011;54614;47.576;7.524;2023-05-10T03:41:17;0.50;;;0.50;;
67816;SDS011;54614;47.576;7.524;2023-05-10T03:43:42;0.73;;;0.50;;
67816;SDS011;54614;47.576;7.524;2023-05-10T03:46:08;0.45;;;0.45;;
67816;SDS011;54614;47.576;7.524;2023-05-10T03:48:34;0.50;;;0.50;;
67816;SDS011;54614;47.576;7.524;2023-05-10T03:51:00;0.75;;;0.52;;
67816;SDS011;54614;47.576;7.524;2023-05-10T03:53:26;1.17;;;0.50;;
67816;SDS011;54614;47.576;7.524;2023-05-10T03:55:51;0.57;;;0.50;;
67816;SDS011;54614;47.576;7.524;2023-05-10T03:58:17;0.40;;;0.40;;
67816;SDS011;54614;47.576;7.524;2023-05-10T04:00:43;2.38;;;0.68;;
67816;SDS011;54614;47.576;7.524;2023-05-10T04:03:13;0.50;;;0.50;;
67816;SDS011;54614;47.576;7.524;2023-05-10T04:05:39;0.50;;;0.50;;
67816;SDS011;54614;47.576;7.524;2023-05-10T04:08:05;2.47;;;0.73;;
67816;SDS011;54614;47.576;7.524;2023-05-10T04:10:31;1.15;;;0.50;;
67816;SDS011;54614;47.576;7.524;2023-05-10T04:12:57;8.07;;;0.60;;
67816;SDS011;54614;47.576;7.524;2023-05-10T04:15:23;0.52;;;0.50;;
67816;SDS011;54614;47.576;7.524;2023-05-10T04:17:49;0.50;;;0.50;;
67816;SDS011;54614;47.576;7.524;2023-05-10T04:20:15;1.75;;;0.60;;
67816;SDS011;54614;47.576;7.524;2023-05-10T04:22:41;1.27;;;0.60;;
67816;SDS011;54614;47.576;7.524;2023-05-10T04:25:07;1.55;;;0.50;;
67816;SDS011;54614;47.576;7.524;2023-05-10T04:27:34;1.48;;;0.55;;
67816;SDS011;54614;47.576;7.524;2023-05-10T04:29:59;1.33;;;0.68;;
67816;SDS011;54614;47.576;7.524;2023-05-10T04:32:26;0.75;;;0.40;;
67816;SDS011;54614;47.576;7.524;2023-05-10T04:34:52;0.55;;;0.50;;
67816;SDS011;54614;47.576;7.524;2023-05-10T04:37:18;0.98;;;0.52;;
67816;SDS011;54614;47.576;7.524;2023-05-10T04:39:44;2.30;;;0.50;;
67816;SDS011;54614;47.576;7.524;2023-05-10T04:42:09;0.65;;;0.40;;
67816;SDS011;54614;47.576;7.524;2023-05-10T04:44:36;0.50;;;0.50;;
67816;SDS011;54614;47.576;7.524;2023-05-10T04:47:02;0.68;;;0.52;;
67816;SDS011;54614;47.576;7.524;2023-05-10T04:49:28;1.23;;;0.45;;
67816;SDS011;54614;47.576;7.524;2023-05-10T04:51:55;1.30;;;0.60;;
67816;SDS011;54614;47.576;7.524;2023-05-10T04:54:21;0.57;;;0.57;;
67816;SDS011;54614;47.576;7.524;2023-05-10T04:56:46;0.60;;;0.50;;
67816;SDS011;54614;47.576;7.524;2023-05-10T04:59:12;0.50;;;0.47;;
67816;SDS011;54614;47.576;7.524;2023-05-10T05:01:39;0.40;;;0.40;;
67816;SDS011;54614;47.576;7.524;2023-05-10T05:04:05;0.70;;;0.50;;
67816;SDS011;54614;47.576;7.524;2023-05-10T05:06:31;0.60;;;0.60;;
67816;SDS011;54614;47.576;7.524;2023-05-10T05:08:57;0.60;;;0.60;;
67816;SDS011;54614;47.576;7.524;2023-05-10T05:11:23;0.50;;;0.50;;
67816;SDS011;54614;47.576;7.524;2023-05-10T05:13:50;0.57;;;0.40;;
67816;SDS011;54614;47.576;7.524;2023-05-10T05:16:16;2.40;;;0.60;;
67816;SDS011;54614;47.576;7.524;2023-05-10T05:18:41;0.65;;;0.40;;
67816;SDS011;54614;47.576;7.524;2023-05-10T05:21:17;0.50;;;0.50;;
67816;SDS011;54614;47.576;7.524;2023-05-10T05:23:43;1.48;;;0.60;;
67816;SDS011;54614;47.576;7.524;2023-05-10T05:26:10;0.57;;;0.57;;
67816;SDS011;54614;47.576;7.524;2023-05-10T05:28:36;0.50;;;0.50;;
67816;SDS011;54614;47.576;7.524;2023-05-10T05:31:04;1.50;;;0.57;;
67816;SDS011;54614;47.576;7.524;2023-05-10T05:33:32;2.05;;;0.50;;
67816;SDS011;54614;47.576;7.524;2023-05-10T05:36:02;0.43;;;0.43;;
67816;SDS011;54614;47.576;7.524;2023-05-10T05:38:29;0.50;;;0.50;;
67816;SDS011;54614;47.576;7.524;2023-05-10T05:40:55;1.38;;;0.50;;
67816;SDS011;54614;47.576;7.524;2023-05-10T05:43:22;0.68;;;0.40;;
67816;SDS011;54614;47.576;7.524;2023-05-10T05:45:48;0.60;;;0.60;;
67816;SDS011;54614;47.576;7.524;2023-05-10T05:48:14;4.78;;;0.70;;
67816;SDS011;54614;47.576;7.524;2023-05-10T05:50:40;1.48;;;0.60;;
67816;SDS011;54614;47.576;7.524;2023-05-10T05:53:05;0.55;;;0.55;;
67816;SDS011;54614;47.576;7.524;2023-05-10T05:55:31;1.38;;;0.50;;
67816;SDS011;54614;47.576;7.524;2023-05-10T05:57:57;0.88;;;0.50;;
67816;SDS011;54614;47.576;7.524;2023-05-10T06:00:24;0.63;;;0.60;;
67816;SDS011;54614;47.576;7.524;2023-05-10T06:02:49;0.80;;;0.70;;
67816;SDS011;54614;47.576;7.524;2023-05-10T06:05:15;0.63;;;0.57;;
67816;SDS011;54614;47.576;7.524;2023-05-10T06:07:41;0.52;;;0.52;;
67816;SDS011;54614;47.576;7.524;2023-05-10T06:10:07;0.57;;;0.57;;
67816;SDS011;54614;47.576;7.524;2023-05-10T06:12:34;0.70;;;0.60;;
67816;SDS011;54614;47.576;7.524;2023-05-10T06:15:00;1.67;;;0.60;;
67816;SDS011;54614;47.576;7.524;2023-05-10T06:17:27;9.57;;;0.80;;
67816;SDS011;54614;47.576;7.524;2023-05-10T06:19:53;12.85;;;1.35;;
67816;SDS011;54614;47.576;7.524;2023-05-10T06:22:19;6.80;;;0.80;;
67816;SDS011;54614;47.576;7.524;2023-05-10T06:24:47;2.55;;;0.50;;
67816;SDS011;54614;47.576;7.524;2023-05-10T06:27:14;3.90;;;0.80;;
67816;SDS011;54614;47.576;7.524;2023-05-10T06:29:39;9.32;;;1.05;;
67816;SDS011;54614;47.576;7.524;2023-05-10T06:32:05;2.80;;;0.63;;
67816;SDS011;54614;47.576;7.524;2023-05-10T06:34:31;3.55;;;0.70;;
67816;SDS011;54614;47.576;7.524;2023-05-10T06:36:57;7.90;;;0.90;;
67816;SDS011;54614;47.576;7.524;2023-05-10T06:39:23;6.30;;;0.90;;
67816;SDS011;54614;47.576;7.524;2023-05-10T06:41:48;2.90;;;0.73;;
67816;SDS011;54614;47.576;7.524;2023-05-10T06:44:14;5.20;;;0.90;;
67816;SDS011;54614;47.576;7.524;2023-05-10T06:46:40;3.88;;;0.90;;
67816;SDS011;54614;47.576;7.524;2023-05-10T06:49:06;1.75;;;0.70;;
67816;SDS011;54614;47.576;7.524;2023-05-10T06:51:32;2.95;;;0.95;;
67816;SDS011;54614;47.576;7.524;2023-05-10T06:53:58;3.30;;;0.90;;
67816;SDS011;54614;47.576;7.524;2023-05-10T06:56:25;1.98;;;0.80;;
67816;SDS011;54614;47.576;7.524;2023-05-10T06:58:51;6.75;;;1.00;;
67816;SDS011;54614;47.576;7.524;2023-05-10T07:01:16;3.92;;;1.00;;
67816;SDS011;54614;47.576;7.524;2023-05-10T07:03:42;3.75;;;0.90;;
67816;SDS011;54614;47.576;7.524;2023-05-10T07:06:08;4.90;;;1.08;;
67816;SDS011;54614;47.576;7.524;2023-05-10T07:08:34;1.00;;;0.80;;
67816;SDS011;54614;47.576;7.524;2023-05-10T07:11:03;6.95;;;1.10;;
67816;SDS011;54614;47.576;7.524;2023-05-10T07:13:34;3.90;;;1.00;;
67816;SDS011;54614;47.576;7.524;2023-05-10T07:16:01;3.85;;;0.82;;
67816;SDS011;54614;47.576;7.524;2023-05-10T07:18:27;2.05;;;0.82;;
67816;SDS011;54614;47.576;7.524;2023-05-10T07:20:53;4.57;;;1.00;;
67816;SDS011;54614;47.576;7.524;2023-05-10T07:23:20;2.05;;;1.00;;
67816;SDS011;54614;47.576;7.524;2023-05-10T07:25:49;1.70;;;1.10;;
67816;SDS011;54614;47.576;7.524;2023-05-10T07:28:19;2.33;;;0.98;;
67816;SDS011;54614;47.576;7.524;2023-05-10T07:30:45;3.15;;;1.00;;
67816;SDS011;54614;47.576;7.524;2023-05-10T07:33:12;5.65;;;1.20;;
67816;SDS011;54614;47.576;7.524;2023-05-10T07:35:39;1.52;;;0.90;;
67816;SDS011;54614;47.576;7.524;2023-05-10T07:38:05;1.77;;;0.88;;
67816;SDS011;54614;47.576;7.524;2023-05-10T07:40:31;7.53;;;1.10;;
67816;SDS011;54614;47.576;7.524;2023-05-10T07:42:57;3.22;;;1.10;;
67816;SDS011;54614;47.576;7.524;2023-05-10T07:45:24;2.22;;;0.90;;
67816;SDS011;54614;47.576;7.524;2023-05-10T07:47:50;5.57;;;1.10;;
67816;SDS011;54614;47.576;7.524;2023-05-10T07:50:16;4.10;;;0.95;;
67816;SDS011;54614;47.576;7.524;2023-05-10T07:52:42;7.53;;;1.00;;
67816;SDS011;54614;47.576;7.524;2023-05-10T07:55:08;4.43;;;1.10;;
67816;SDS011;54614;47.576;7.524;2023-05-10T07:57:34;4.80;;;1.20;;
67816;SDS011;54614;47.576;7.524;2023-05-10T08:00:00;1.55;;;1.05;;
67816;SDS011;54614;47.576;7.524;2023-05-10T08:02:26;2.20;;;1.00;;
67816;SDS011;54614;47.576;7.524;2023-05-10T08:04:52;3.25;;;1.08;;
67816;SDS011;54614;47.576;7.524;2023-05-10T08:07:18;4.85;;;1.10;;
67816;SDS011;54614;47.576;7.524;2023-05-10T08:09:43;3.65;;;1.00;;
67816;SDS011;54614;47.576;7.524;2023-05-10T08:12:09;3.13;;;1.00;;
67816;SDS011;54614;47.576;7.524;2023-05-10T08:14:35;1.40;;;0.90;;
67816;SDS011;54614;47.576;7.524;2023-05-10T08:17:04;3.80;;;1.10;;
67816;SDS011;54614;47.576;7.524;2023-05-10T08:19:29;1.30;;;0.85;;
67816;SDS011;54614;47.576;7.524;2023-05-10T08:21:55;4.00;;;0.98;;
67816;SDS011;54614;47.576;7.524;2023-05-10T08:24:22;2.75;;;0.95;;
67816;SDS011;54614;47.576;7.524;2023-05-10T08:26:47;6.15;;;1.00;;
67816;SDS011;54614;47.576;7.524;2023-05-10T08:29:14;2.97;;;1.00;;
67816;SDS011;54614;47.576;7.524;2023-05-10T08:31:40;7.78;;;1.33;;
67816;SDS011;54614;47.576;7.524;2023-05-10T08:34:06;5.10;;;1.10;;
67816;SDS011;54614;47.576;7.524;2023-05-10T08:36:32;4.93;;;1.00;;
67816;SDS011;54614;47.576;7.524;2023-05-10T08:38:58;3.15;;;1.10;;
67816;SDS011;54614;47.576;7.524;2023-05-10T08:41:24;5.22;;;1.10;;
67816;SDS011;54614;47.576;7.524;2023-05-10T08:43:53;4.30;;;1.17;;
67816;SDS011;54614;47.576;7.524;2023-05-10T08:46:20;3.38;;;1.23;;
67816;SDS011;54614;47.576;7.524;2023-05-10T08:48:49;4.35;;;0.90;;
67816;SDS011;54614;47.576;7.524;2023-05-10T08:51:17;4.15;;;0.80;;
67816;SDS011;54614;47.576;7.524;2023-05-10T08:53:47;4.22;;;0.93;;
67816;SDS011;54614;47.576;7.524;2023-05-10T08:56:13;2.17;;;0.98;;
67816;SDS011;54614;47.576;7.524;2023-05-10T08:58:42;3.25;;;1.10;;
67816;SDS011;54614;47.576;7.524;2023-05-10T09:01:08;7.00;;;1.17;;
67816;SDS011;54614;47.576;7.524;2023-05-10T09:03:40;2.78;;;1.00;;
67816;SDS011;54614;47.576;7.524;2023-05-10T09:06:06;2.08;;;0.80;;
67816;SDS011;54614;47.576;7.524;2023-05-10T09:08:33;2.28;;;1.00;;
67816;SDS011;54614;47.576;7.524;2023-05-10T09:11:00;3.10;;;0.85;;
67816;SDS011;54614;47.576;7.524;2023-05-10T09:13:26;1.33;;;0.80;;
67816;SDS011;54614;47.576;7.524;2023-05-10T09:15:53;1.92;;;0.82;;
67816;SDS011;54614;47.576;7.524;2023-05-10T09:18:19;1.30;;;0.90;;
67816;SDS011;54614;47.576;7.524;2023-05-10T09:20:45;1.92;;;0.98;;
67816;SDS011;54614;47.576;7.524;2023-05-10T09:23:11;0.90;;;0.90;;
67816;SDS011;54614;47.576;7.524;2023-05-10T09:25:36;1.67;;;0.80;;
67816;SDS011;54614;47.576;7.524;2023-05-10T09:28:05;0.98;;;0.85;;
67816;SDS011;54614;47.576;7.524;2023-05-10T09:30:33;1.77;;;0.80;;
67816;SDS011;54614;47.576;7.524;2023-05-10T09:33:00;2.50;;;0.80;;
67816;SDS011;54614;47.576;7.524;2023-05-10T09:35:27;2.33;;;0.90;;
67816;SDS011;54614;47.576;7.524;2023-05-10T09:37:58;0.95;;;0.73;;
67816;SDS011;54614;47.576;7.524;2023-05-10T09:40:28;3.72;;;0.90;;
67816;SDS011;54614;47.576;7.524;2023-05-10T09:42:56;2.58;;;1.00;;
67816;SDS011;54614;47.576;7.524;2023-05-10T09:45:26;0.82;;;0.70;;
67816;SDS011;54614;47.576;7.524;2023-05-10T09:47:57;1.30;;;0.82;;
67816;SDS011;54614;47.576;7.524;2023-05-10T09:50:25;1.67;;;0.80;;
67816;SDS011;54614;47.576;7.524;2023-05-10T09:52:53;2.20;;;1.05;;
67816;SDS011;54614;47.576;7.524;2023-05-10T09:55:22;2.17;;;0.90;;
67816;SDS011;54614;47.576;7.524;2023-05-10T09:58:03;2.70;;;0.70;;
67816;SDS011;54614;47.576;7.524;2023-05-10T10:00:34;1.42;;;0.90;;
67816;SDS011;54614;47.576;7.524;2023-05-10T10:03:13;0.73;;;0.70;;
67816;SDS011;54614;47.576;7.524;2023-05-10T10:05:46;1.55;;;0.80;;
67816;SDS011;54614;47.576;7.524;2023-05-10T10:08:13;1.52;;;0.73;;
67816;SDS011;54614;47.576;7.524;2023-05-10T10:10:40;1.67;;;0.82;;
67816;SDS011;54614;47.576;7.524;2023-05-10T10:13:09;4.47;;;0.90;;
67816;SDS011;54614;47.576;7.524;2023-05-10T10:15:35;2.20;;;0.90;;
67816;SDS011;54614;47.576;7.524;2023-05-10T10:18:01;1.73;;;0.70;;
67816;SDS011;54614;47.576;7.524;2023-05-10T10:20:29;3.47;;;0.80;;
67816;SDS011;54614;47.576;7.524;2023-05-10T10:22:54;2.00;;;0.95;;
67816;SDS011;54614;47.576;7.524;2023-05-10T10:25:20;4.20;;;0.95;;
67816;SDS011;54614;47.576;7.524;2023-05-10T10:30:25;2.05;;;0.80;;
67816;SDS011;54614;47.576;7.524;2023-05-10T10:35:58;3.08;;;0.98;;
67816;SDS011;54614;47.576;7.524;2023-05-10T10:38:35;2.95;;;0.80;;
67816;SDS011;54614;47.576;7.524;2023-05-10T10:50:02;4.50;;;0.80;;
67816;SDS011;54614;47.576;7.524;2023-05-10T10:55:03;0.60;;;0.60;;
67816;SDS011;54614;47.576;7.524;2023-05-10T10:57:52;1.30;;;0.85;;
67816;SDS011;54614;47.576;7.524;2023-05-10T11:00:26;1.33;;;0.95;;
67816;SDS011;54614;47.576;7.524;2023-05-10T11:05:48;1.52;;;0.80;;
67816;SDS011;54614;47.576;7.524;2023-05-10T11:08:26;1.38;;;0.90;;
67816;SDS011;54614;47.576;7.524;2023-05-10T11:13:43;0.80;;;0.80;;
67816;SDS011;54614;47.576;7.524;2023-05-10T11:16:18;3.00;;;0.80;;
67816;SDS011;54614;47.576;7.524;2023-05-10T11:18:53;0.77;;;0.73;;
67816;SDS011;54614;47.576;7.524;2023-05-10T11:21:22;1.63;;;0.73;;
67816;SDS011;54614;47.576;7.524;2023-05-10T11:23:49;2.28;;;0.90;;
67816;SDS011;54614;47.576;7.524;2023-05-10T11:26:20;2.03;;;0.82;;
67816;SDS011;54614;47.576;7.524;2023-05-10T11:28:52;2.20;;;0.80;;
67816;SDS011;54614;47.576;7.524;2023-05-10T11:31:22;1.83;;;0.65;;
67816;SDS011;54614;47.576;7.524;2023-05-10T11:33:49;0.85;;;0.80;;
67816;SDS011;54614;47.576;7.524;2023-05-10T11:36:17;3.35;;;1.00;;
67816;SDS011;54614;47.576;7.524;2023-05-10T11:38:54;4.72;;;0.82;;
67816;SDS011;54614;47.576;7.524;2023-05-10T11:41:22;3.85;;;0.80;;
67816;SDS011;54614;47.576;7.524;2023-05-10T11:43:49;0.65;;;0.65;;
67816;SDS011;54614;47.576;7.524;2023-05-10T11:46:18;3.28;;;0.90;;
67816;SDS011;54614;47.576;7.524;2023-05-10T11:48:48;5.22;;;1.10;;
67816;SDS011;54614;47.576;7.524;2023-05-10T11:51:23;4.22;;;0.85;;
67816;SDS011;54614;47.576;7.524;2023-05-10T11:53:52;0.85;;;0.70;;
67816;SDS011;54614;47.576;7.524;2023-05-10T11:56:19;0.80;;;0.80;;
67816;SDS011;54614;47.576;7.524;2023-05-10T11:58:51;1.60;;;0.85;;
67816;SDS011;54614;47.576;7.524;2023-05-10T12:01:25;2.35;;;0.90;;
67816;SDS011;54614;47.576;7.524;2023-05-10T12:03:53;1.42;;;0.77;;
67816;SDS011;54614;47.576;7.524;2023-05-10T12:06:31;2.67;;;0.88;;
67816;SDS011;54614;47.576;7.524;2023-05-10T12:09:06;3.50;;;0.93;;
67816;SDS011;54614;47.576;7.524;2023-05-10T12:11:35;1.67;;;1.00;;
67816;SDS011;54614;47.576;7.524;2023-05-10T12:14:05;3.42;;;0.95;;
67816;SDS011;54614;47.576;7.524;2023-05-10T12:16:31;7.55;;;0.93;;
67816;SDS011;54614;47.576;7.524;2023-05-10T12:18:58;7.47;;;1.00;;
67816;SDS011;54614;47.576;7.524;2023-05-10T12:21:26;4.40;;;1.00;;
67816;SDS011;54614;47.576;7.524;2023-05-10T12:23:58;2.83;;;0.70;;
67816;SDS011;54614;47.576;7.524;2023-05-10T12:26:28;2.28;;;0.80;;
67816;SDS011;54614;47.576;7.524;2023-05-10T12:28:55;3.15;;;1.02;;
67816;SDS011;54614;47.576;7.524;2023-05-10T12:36:58;1.52;;;0.88;;
67816;SDS011;54614;47.576;7.524;2023-05-10T12:39:25;2.65;;;1.00;;
67816;SDS011;54614;47.576;7.524;2023-05-10T12:41:51;0.88;;;0.68;;
67816;SDS011;54614;47.576;7.524;2023-05-10T12:44:17;1.90;;;0.80;;
67816;SDS011;54614;47.576;7.524;2023-05-10T12:46:44;5.68;;;0.90;;
67816;SDS011;54614;47.576;7.524;2023-05-10T12:49:09;2.55;;;0.90;;
67816;SDS011;54614;47.576;7.524;2023-05-10T12:51:35;0.80;;;0.80;;
67816;SDS011;54614;47.576;7.524;2023-05-10T12:54:02;4.28;;;1.10;;
67816;SDS011;54614;47.576;7.524;2023-05-10T12:56:28;1.77;;;0.90;;
67816;SDS011;54614;47.576;7.524;2023-05-10T12:58:54;1.17;;;0.75;;
67816;SDS011;54614;47.576;7.524;2023-05-10T13:01:20;1.35;;;0.80;;
67816;SDS011;54614;47.576;7.524;2023-05-10T13:03:45;1.65;;;0.80;;
67816;SDS011;54614;47.576;7.524;2023-05-10T13:06:11;3.42;;;0.80;;
67816;SDS011;54614;47.576;7.524;2023-05-10T13:08:38;2.33;;;0.88;;
67816;SDS011;54614;47.576;7.524;2023-05-10T13:11:05;1.58;;;0.73;;
67816;SDS011;54614;47.576;7.524;2023-05-10T13:13:31;0.70;;;0.70;;
67816;SDS011;54614;47.576;7.524;2023-05-10T13:15:56;1.92;;;1.00;;
67816;SDS011;54614;47.576;7.524;2023-05-10T13:18:22;2.47;;;1.00;;
67816;SDS011;54614;47.576;7.524;2023-05-10T13:20:49;1.20;;;0.90;;
67816;SDS011;54614;47.576;7.524;2023-05-10T13:23:15;4.00;;;0.80;;
67816;SDS011;54614;47.576;7.524;2023-05-10T13:25:40;2.67;;;0.95;;
67816;SDS011;54614;47.576;7.524;2023-05-10T13:28:06;1.92;;;0.80;;
67816;SDS011;54614;47.576;7.524;2023-05-10T13:30:32;0.75;;;0.75;;
67816;SDS011;54614;47.576;7.524;2023-05-10T13:32:58;1.23;;;0.80;;
67816;SDS011;54614;47.576;7.524;2023-05-10T13:35:23;2.72;;;0.77;;
67816;SDS011;54614;47.576;7.524;2023-05-10T13:37:49;1.45;;;0.82;;
67816;SDS011;54614;47.576;7.524;2023-05-10T13:40:15;3.13;;;0.75;;
67816;SDS011;54614;47.576;7.524;2023-05-10T13:42:42;1.48;;;1.00;;
67816;SDS011;54614;47.576;7.524;2023-05-10T13:45:07;2.33;;;1.00;;
67816;SDS011;54614;47.576;7.524;2023-05-10T13:47:34;1.25;;;0.63;;
67816;SDS011;54614;47.576;7.524;2023-05-10T13:50:00;3.25;;;0.70;;
67816;SDS011;54614;47.576;7.524;2023-05-10T13:52:26;1.70;;;0.70;;
67816;SDS011;54614;47.576;7.524;2023-05-10T13:54:52;4.32;;;0.77;;
67816;SDS011;54614;47.576;7.524;2023-05-10T13:57:19;2.42;;;0.70;;
67816;SDS011;54614;47.576;7.524;2023-05-10T13:59:46;2.33;;;0.70;;
67816;SDS011;54614;47.576;7.524;2023-05-10T14:02:12;2.30;;;0.80;;
67816;SDS011;54614;47.576;7.524;2023-05-10T14:04:38;3.40;;;0.80;;
67816;SDS011;54614;47.576;7.524;2023-05-10T14:07:04;1.38;;;0.70;;
67816;SDS011;54614;47.576;7.524;2023-05-10T14:09:29;2.15;;;0.88;;
67816;SDS011;54614;47.576;7.524;2023-05-10T14:11:55;4.70;;;0.85;;
67816;SDS011;54614;47.576;7.524;2023-05-10T14:14:22;1.90;;;0.80;;
67816;SDS011;54614;47.576;7.524;2023-05-10T14:16:48;5.10;;;0.75;;
67816;SDS011;54614;47.576;7.524;2023-05-10T14:19:13;3.22;;;0.88;;
67816;SDS011;54614;47.576;7.524;2023-05-10T14:21:39;2.33;;;0.82;;
67816;SDS011;54614;47.576;7.524;2023-05-10T14:24:05;2.40;;;0.90;;
67816;SDS011;54614;47.576;7.524;2023-05-10T14:26:32;5.40;;;0.75;;
67816;SDS011;54614;47.576;7.524;2023-05-10T14:28:59;6.50;;;0.80;;
67816;SDS011;54614;47.576;7.524;2023-05-10T14:31:25;3.03;;;0.80;;
67816;SDS011;54614;47.576;7.524;2023-05-10T14:33:51;1.90;;;0.75;;
67816;SDS011;54614;47.576;7.524;2023-05-10T14:36:17;6.28;;;1.10;;
67816;SDS011;54614;47.576;7.524;2023-05-10T14:38:43;7.22;;;1.10;;
67816;SDS011;54614;47.576;7.524;2023-05-10T14:41:09;4.82;;;0.90;;
67816;SDS011;54614;47.576;7.524;2023-05-10T14:43:39;7.50;;;1.00;;
67816;SDS011;54614;47.576;7.524;2023-05-10T14:46:05;3.13;;;0.85;;
67816;SDS011;54614;47.576;7.524;2023-05-10T14:48:31;7.60;;;1.15;;
67816;SDS011;54614;47.576;7.524;2023-05-10T14:50:56;4.57;;;1.00;;
67816;SDS011;54614;47.576;7.524;2023-05-10T14:53:22;4.80;;;0.90;;
67816;SDS011;54614;47.576;7.524;2023-05-10T14:55:48;3.90;;;1.02;;
67816;SDS011;54614;47.576;7.524;2023-05-10T14:58:14;3.08;;;0.90;;
67816;SDS011;54614;47.576;7.524;2023-05-10T15:00:40;3.65;;;1.00;;
67816;SDS011;54614;47.576;7.524;2023-05-10T15:03:05;2.30;;;1.00;;
67816;SDS011;54614;47.576;7.524;2023-05-10T15:05:31;4.95;;;1.10;;
67816;SDS011;54614;47.576;7.524;2023-05-10T15:07:57;2.55;;;0.80;;
67816;SDS011;54614;47.576;7.524;2023-05-10T15:10:23;6.32;;;0.90;;
67816;SDS011;54614;47.576;7.524;2023-05-10T15:12:49;3.40;;;0.90;;
67816;SDS011;54614;47.576;7.524;2023-05-10T15:15:15;4.07;;;1.00;;
67816;SDS011;54614;47.576;7.524;2023-05-10T15:17:41;3.40;;;1.05;;
67816;SDS011;54614;47.576;7.524;2023-05-10T15:20:07;4.25;;;0.93;;
67816;SDS011;54614;47.576;7.524;2023-05-10T15:22:33;3.47;;;0.80;;
67816;SDS011;54614;47.576;7.524;2023-05-10T15:25:04;7.13;;;1.17;;
67816;SDS011;54614;47.576;7.524;2023-05-10T15:27:30;2.03;;;0.93;;
67816;SDS011;54614;47.576;7.524;2023-05-10T15:29:56;4.43;;;0.77;;
67816;SDS011;54614;47.576;7.524;2023-05-10T15:32:22;5.30;;;1.13;;